createdAt,value
2023-07-19T00:09:10.151Z,17.54
2023-07-19T00:29:10.191Z,17.62
2023-07-19T00:49:10.542Z,17.86
2023-07-19T01:09:10.238Z,17.96
2023-07-19T01:29:10.287Z,17.92
2023-07-19T01:49:10.235Z,17.56
2023-07-19T02:09:10.740Z,17.43
2023-07-19T02:29:10.295Z,17.43
2023-07-19T02:49:10.216Z,17.27
2023-07-19T03:09:10.767Z,17.18
2023-07-19T03:29:10.386Z,16.85
2023-07-19T03:49:10.477Z,16.72
2023-07-19T04:09:10.453Z,16.81
2023-07-19T04:29:10.460Z,16.87
2023-07-19T04:49:10.482Z,17.08
2023-07-19T05:09:10.575Z,17.09
2023-07-19T05:29:10.623Z,17.52
2023-07-19T05:49:10.605Z,17.83
2023-07-19T06:09:10.652Z,18.24
2023-07-19T06:29:10.713Z,18.89
2023-07-19T06:49:10.662Z,19.72
2023-07-19T07:09:11.076Z,20.78
2023-07-19T07:29:10.758Z,22.09
2023-07-19T07:49:10.642Z,22.95
2023-07-19T08:09:11.084Z,23.81
2023-07-19T08:29:10.877Z,24.94
2023-07-19T08:49:10.785Z,24.55
2023-07-19T09:09:11.036Z,24.94
2023-07-19T09:29:10.914Z,25.61
2023-07-19T09:49:10.874Z,26.58
2023-07-19T10:09:11.222Z,29.69
2023-07-19T10:29:10.928Z,31.56
2023-07-19T10:49:10.975Z,31.79
2023-07-19T11:09:11.186Z,32.89
2023-07-19T11:29:11.058Z,32.49
2023-07-19T11:49:11.207Z,31.71
2023-07-19T12:09:11.104Z,31.65
2023-07-19T12:29:11.450Z,29.03
2023-07-19T12:49:11.117Z,28.91
2023-07-19T13:09:11.129Z,28.81
2023-07-19T13:29:11.248Z,30.11
2023-07-19T13:49:11.174Z,30.66
2023-07-19T14:09:11.337Z,30.72
2023-07-19T14:49:12.002Z,28.82
2023-07-19T15:09:11.229Z,27.95
2023-07-19T15:29:11.627Z,27.45
2023-07-19T15:49:11.381Z,26.83
2023-07-19T16:09:11.435Z,19.04
2023-07-19T16:29:11.431Z,17.65
2023-07-19T16:49:11.550Z,17.14
2023-07-19T17:09:11.441Z,17.57
2023-07-19T17:29:11.507Z,17.52
2023-07-19T17:49:11.611Z,17.81
2023-07-19T18:09:11.490Z,17.83
2023-07-19T18:29:11.569Z,17.81
2023-07-19T18:49:11.678Z,17.81
2023-07-19T19:09:11.587Z,17.61
2023-07-19T19:29:11.676Z,17.47
2023-07-19T19:49:12.158Z,17.4
2023-07-19T21:09:11.800Z,16.99
2023-07-19T21:29:11.792Z,16.83
2023-07-19T21:49:11.902Z,16.58
2023-07-19T22:09:11.994Z,16.51
2023-07-19T22:29:11.880Z,16.47
2023-07-19T22:49:11.953Z,16.57
2023-07-19T23:09:12.012Z,16.42
2023-07-19T23:29:11.978Z,16.27
2023-07-19T23:49:11.911Z,16.15
